createdAt,value
2018-04-07T00:01:44.689Z,48.50
2018-04-07T00:04:14.220Z,48.50
2018-04-07T00:06:42.960Z,47.90
2018-04-07T00:09:11.682Z,47.00
2018-04-07T00:11:42.057Z,46.10
2018-04-07T00:14:11.365Z,46.10
2018-04-07T00:16:40.099Z,46.10
2018-04-07T00:19:09.589Z,45.90
2018-04-07T00:21:39.064Z,45.90
2018-04-07T00:24:07.780Z,45.60
2018-04-07T00:26:36.478Z,45.60
2018-04-07T00:29:05.198Z,45.70
2018-04-07T00:31:35.886Z,45.60
2018-04-07T00:34:04.272Z,45.90
2018-04-07T00:36:35.200Z,46.10
2018-04-07T00:39:03.268Z,46.00
2018-04-07T00:41:31.995Z,46.10
2018-04-07T00:44:02.612Z,46.20
2018-04-07T00:46:33.391Z,46.70
2018-04-07T00:49:02.136Z,46.00
2018-04-07T00:51:31.650Z,46.00
2018-04-07T00:54:01.135Z,45.80
2018-04-07T00:56:29.867Z,45.70
2018-04-07T00:58:58.584Z,45.50
2018-04-07T01:01:27.292Z,45.50
2018-04-07T01:03:56.109Z,45.60
2018-04-07T01:06:25.588Z,45.80
2018-04-07T01:08:54.311Z,45.80
2018-04-07T01:11:23.800Z,45.50
2018-04-07T01:13:53.279Z,46.00
2018-04-07T01:16:22.886Z,45.60
2018-04-07T01:18:51.615Z,45.60
2018-04-07T01:21:21.625Z,45.50
2018-04-07T01:23:51.119Z,45.40
2018-04-07T01:26:19.848Z,45.40
2018-04-07T01:28:49.746Z,45.10
2018-04-07T01:31:19.260Z,45.70
2018-04-07T01:33:47.982Z,45.70
2018-04-07T01:36:16.700Z,45.90
2018-04-07T01:38:45.428Z,45.80
2018-04-07T01:41:14.139Z,45.90
2018-04-07T01:43:42.851Z,45.80
2018-04-07T01:46:12.221Z,45.90
2018-04-07T01:48:41.130Z,45.80
2018-04-07T01:51:09.838Z,45.90
2018-04-07T01:53:38.565Z,45.60
2018-04-07T01:56:07.291Z,45.70
2018-04-07T01:58:36.013Z,45.90
2018-04-07T02:01:04.394Z,45.80
2018-04-07T02:03:34.309Z,45.50
2018-04-07T02:06:03.048Z,46.20
2018-04-07T02:08:31.773Z,46.10
2018-04-07T02:11:00.492Z,45.90
2018-04-07T02:13:29.662Z,45.90
2018-04-07T02:15:58.359Z,45.90
2018-04-07T02:18:27.396Z,45.80
2018-04-07T02:20:56.133Z,45.90
2018-04-07T02:23:24.867Z,45.60
2018-04-07T02:25:53.595Z,45.60
2018-04-07T02:28:22.028Z,45.90
2018-04-07T02:30:50.770Z,45.90
2018-04-07T02:33:19.257Z,46.00
2018-04-07T02:35:47.660Z,46.10
2018-04-07T02:38:17.156Z,46.60
2018-04-07T02:40:45.879Z,46.60
2018-04-07T02:43:14.598Z,46.70
2018-04-07T02:45:43.308Z,46.90
2018-04-07T02:48:12.429Z,46.80
2018-04-07T02:50:41.907Z,46.90
2018-04-07T02:53:10.627Z,46.90
2018-04-07T02:55:40.129Z,46.60
2018-04-07T02:58:09.620Z,46.30
2018-04-07T03:00:38.338Z,46.30
2018-04-07T03:03:07.055Z,46.60
2018-04-07T03:05:35.778Z,45.80
2018-04-07T03:08:04.497Z,45.40
2018-04-07T03:10:33.220Z,45.50
2018-04-07T03:13:01.938Z,45.60
2018-04-07T03:15:30.647Z,45.50
2018-04-07T03:18:00.124Z,45.40
2018-04-07T03:20:28.838Z,45.40
2018-04-07T03:22:58.086Z,45.20
2018-04-07T03:25:26.795Z,45.10
2018-04-07T03:27:55.517Z,45.20
2018-04-07T03:30:24.993Z,45.40
2018-04-07T03:32:53.708Z,45.40
2018-04-07T03:35:23.182Z,45.80
2018-04-07T03:37:51.895Z,45.70
2018-04-07T03:40:20.616Z,45.90
2018-04-07T03:42:49.100Z,46.10
2018-04-07T03:45:17.840Z,46.20
2018-04-07T03:47:46.229Z,46.20
2018-04-07T03:50:14.939Z,46.10
2018-04-07T03:52:43.423Z,46.30
2018-04-07T03:55:12.138Z,46.10
2018-04-07T03:57:40.849Z,45.90
2018-04-07T04:00:09.264Z,45.90
2018-04-07T04:02:38.749Z,45.70
2018-04-07T04:05:08.016Z,46.20
2018-04-07T04:07:36.724Z,45.70
2018-04-07T04:10:05.436Z,45.60
2018-04-07T04:12:34.923Z,45.40
2018-04-07T04:15:03.646Z,45.40
2018-04-07T04:17:32.915Z,45.30
2018-04-07T04:20:01.631Z,45.20
2018-04-07T04:22:31.115Z,45.00
2018-04-07T04:24:59.835Z,45.00
2018-04-07T04:27:28.575Z,45.20
2018-04-07T04:29:57.292Z,45.20
2018-04-07T04:32:26.771Z,45.40
2018-04-07T04:34:55.499Z,45.40
2018-04-07T04:37:24.988Z,45.40
2018-04-07T04:39:53.698Z,45.40
2018-04-07T04:42:22.420Z,45.60
2018-04-07T04:44:51.138Z,45.80
2018-04-07T04:47:19.862Z,45.80
2018-04-07T04:49:48.584Z,45.70
2018-04-07T04:52:17.287Z,45.80
2018-04-07T04:54:45.994Z,45.60
2018-04-07T04:57:14.698Z,45.60
2018-04-07T04:59:44.169Z,45.90
2018-04-07T05:02:12.870Z,45.90
2018-04-07T05:04:41.576Z,46.00
2018-04-07T05:07:11.046Z,46.00
2018-04-07T05:09:39.764Z,46.00
2018-04-07T05:12:09.243Z,46.00
2018-04-07T05:14:37.964Z,46.00
2018-04-07T05:17:07.456Z,45.70
2018-04-07T05:19:35.927Z,45.70
2018-04-07T05:22:04.639Z,46.50
2018-04-07T05:24:34.110Z,45.50
2018-04-07T05:27:02.818Z,45.40
2018-04-07T05:29:31.540Z,45.40
2018-04-07T05:32:01.493Z,45.30
2018-04-07T05:34:30.194Z,45.20
2018-04-07T05:36:58.905Z,45.00
2018-04-07T05:39:28.383Z,45.00
2018-04-07T05:41:57.870Z,44.90
2018-04-07T05:44:27.133Z,44.60
2018-04-07T05:46:56.608Z,44.10
2018-04-07T05:49:25.319Z,44.10
2018-04-07T05:51:54.050Z,43.80
2018-04-07T05:54:22.771Z,43.70
2018-04-07T05:56:51.472Z,43.30
2018-04-07T05:59:20.186Z,43.20
2018-04-07T06:01:50.136Z,43.20
2018-04-07T06:04:19.756Z,43.10
2018-04-07T06:06:48.654Z,43.20
2018-04-07T06:09:18.491Z,42.60
2018-04-07T06:11:47.974Z,42.60
2018-04-07T06:14:16.718Z,42.50
2018-04-07T06:16:45.575Z,42.20
2018-04-07T06:19:15.044Z,42.20
2018-04-07T06:21:44.391Z,42.00
2018-04-07T06:24:13.855Z,41.90
2018-04-07T06:26:42.573Z,41.90
2018-04-07T06:29:11.278Z,41.90
2018-04-07T06:31:40.775Z,41.40
2018-04-07T06:34:09.923Z,41.20
2018-04-07T06:36:40.391Z,41.20
2018-04-07T06:39:09.111Z,41.00
2018-04-07T06:41:37.831Z,40.90
2018-04-07T06:44:07.219Z,40.70
2018-04-07T06:46:35.380Z,39.70
2018-04-07T06:49:03.769Z,39.40
2018-04-07T06:51:32.517Z,39.50
2018-04-07T06:54:02.008Z,39.20
2018-04-07T06:56:30.715Z,39.10
2018-04-07T06:59:00.944Z,38.70
2018-04-07T07:01:30.117Z,39.00
2018-04-07T07:03:58.834Z,39.00
2018-04-07T07:06:29.196Z,38.60
2018-04-07T07:08:57.689Z,38.50
2018-04-07T07:11:27.015Z,38.20
2018-04-07T07:13:55.733Z,37.80
2018-04-07T07:16:24.987Z,37.20
2018-04-07T07:18:54.058Z,37.20
2018-04-07T07:21:29.298Z,36.90
2018-04-07T07:23:58.730Z,36.80
2018-04-07T08:10:28.778Z,36.50
2018-04-07T08:12:57.266Z,33.50
2018-04-07T08:15:26.613Z,34.30
2018-04-07T08:17:55.341Z,37.80
2018-04-07T08:20:24.068Z,35.40
2018-04-07T08:22:52.795Z,33.10
2018-04-07T08:25:21.519Z,33.10
2018-04-07T08:27:52.017Z,32.60
2018-04-07T08:30:21.655Z,32.10
2018-04-07T08:32:50.374Z,32.10
2018-04-07T08:35:19.128Z,31.90
2018-04-07T08:37:47.855Z,32.30
2018-04-07T08:40:16.586Z,31.90
2018-04-07T08:42:45.071Z,31.70
2018-04-07T08:45:13.791Z,31.20
2018-04-07T08:47:44.938Z,31.80
2018-04-07T08:50:14.433Z,30.80
2018-04-07T08:52:43.152Z,30.70
2018-04-07T08:55:13.043Z,30.80
2018-04-07T08:57:42.177Z,30.50
2018-04-07T09:00:11.865Z,29.90
2018-04-07T09:02:41.351Z,29.60
2018-04-07T09:05:10.879Z,29.50
2018-04-07T09:07:39.760Z,29.50
2018-04-07T09:10:10.214Z,29.60
2018-04-07T09:12:39.514Z,29.60
2018-04-07T09:15:08.238Z,29.40
2018-04-07T09:17:36.964Z,28.90
2018-04-07T09:20:07.224Z,29.20
2018-04-07T09:22:35.947Z,29.10
2018-04-07T09:25:06.263Z,28.80
2018-04-07T09:27:35.017Z,28.60
2018-04-07T09:30:03.730Z,28.30
2018-04-07T09:32:33.596Z,28.00
2018-04-07T09:35:02.323Z,28.40
2018-04-07T09:37:31.039Z,28.30
2018-04-07T09:40:01.805Z,27.50
2018-04-07T09:42:31.282Z,27.50
2018-04-07T09:45:00.506Z,27.50
2018-04-07T09:47:29.996Z,27.80
2018-04-07T09:49:58.711Z,27.70
2018-04-07T09:52:28.192Z,27.50
2018-04-07T09:54:57.368Z,27.50
2018-04-07T09:57:26.750Z,27.40
2018-04-07T09:59:55.189Z,26.30
2018-04-07T10:02:25.496Z,26.60
2018-04-07T10:04:54.211Z,26.60
2018-04-07T10:07:22.944Z,26.40
2018-04-07T10:09:51.680Z,26.50
2018-04-07T10:12:22.495Z,26.10
2018-04-07T10:14:51.231Z,26.10
2018-04-07T10:17:19.611Z,26.20
2018-04-07T10:19:48.852Z,26.10
2018-04-07T10:22:17.990Z,25.90
2018-04-07T10:24:47.249Z,25.30
2018-04-07T10:27:15.965Z,25.30
2018-04-07T10:29:44.679Z,25.20
2018-04-07T10:32:13.395Z,24.20
2018-04-07T10:34:42.429Z,24.30
2018-04-07T10:37:10.907Z,24.40
2018-04-07T10:39:40.120Z,24.50
2018-04-07T10:42:09.602Z,25.00
2018-04-07T10:44:38.320Z,25.00
2018-04-07T10:47:08.016Z,25.00
2018-04-07T10:49:37.498Z,26.10
2018-04-07T10:52:06.218Z,25.60
2018-04-07T10:54:35.699Z,25.00
2018-04-07T10:57:05.167Z,25.00
2018-04-07T10:59:36.059Z,25.00
2018-04-07T11:02:08.224Z,24.70
2018-04-07T11:04:37.636Z,25.70
2018-04-07T11:07:07.191Z,25.20
2018-04-07T11:09:36.699Z,25.20
2018-04-07T11:12:06.164Z,25.00
2018-04-07T11:14:34.884Z,25.20
2018-04-07T11:17:03.600Z,25.00
2018-04-07T11:19:32.318Z,25.20
2018-04-07T11:22:01.879Z,25.80
2018-04-07T11:24:30.606Z,25.20
2018-04-07T11:27:00.106Z,24.90
2018-04-07T11:29:28.850Z,24.80
2018-04-07T11:31:57.570Z,24.70
2018-04-07T11:34:26.284Z,24.90
2018-04-07T11:36:55.779Z,24.80
2018-04-07T11:39:24.695Z,24.80
2018-04-07T11:41:53.473Z,24.80
2018-04-07T11:44:22.812Z,25.50
2018-04-07T11:46:51.537Z,25.30
2018-04-07T11:49:19.918Z,24.90
2018-04-07T11:51:48.644Z,24.80
2018-04-07T11:54:18.900Z,25.40
2018-04-07T11:56:47.613Z,25.30
2018-04-07T11:59:16.324Z,25.30
2018-04-07T12:01:47.182Z,25.50
2018-04-07T12:04:15.918Z,25.50
2018-04-07T12:06:44.640Z,25.40
2018-04-07T12:09:14.126Z,25.70
2018-04-07T12:11:42.840Z,25.70
2018-04-07T12:14:12.745Z,26.30
2018-04-07T12:16:42.023Z,26.70
2018-04-07T12:19:10.466Z,26.90
2018-04-07T12:21:39.189Z,26.50
2018-04-07T12:24:08.231Z,26.40
2018-04-07T12:26:36.949Z,26.60
2018-04-07T12:29:05.668Z,26.40
2018-04-07T12:31:34.380Z,26.40
2018-04-07T12:34:03.526Z,27.10
2018-04-07T12:36:31.980Z,27.10
2018-04-07T12:39:00.435Z,26.50
2018-04-07T12:41:29.070Z,26.50
2018-04-07T12:43:57.933Z,26.40
2018-04-07T12:46:26.379Z,26.00
2018-04-07T12:48:54.828Z,25.80
2018-04-07T12:51:23.266Z,26.40
2018-04-07T12:53:51.512Z,26.90
2018-04-07T12:56:19.625Z,26.50
2018-04-07T12:58:50.599Z,26.30
2018-04-07T13:01:20.563Z,25.80
2018-04-07T13:03:52.214Z,25.80
2018-04-07T13:06:22.071Z,25.70
2018-04-07T13:08:51.786Z,26.30
2018-04-07T13:11:21.100Z,26.90
2018-04-07T13:13:49.550Z,26.80
2018-04-07T13:16:18.275Z,26.90
2018-04-07T13:18:46.724Z,26.70
2018-04-07T13:21:16.655Z,27.10
2018-04-07T13:23:44.774Z,26.90
2018-04-07T13:26:14.071Z,26.90
2018-04-07T13:28:42.797Z,27.00
2018-04-07T13:31:11.523Z,27.10
2018-04-07T13:33:44.131Z,27.10
2018-04-07T13:36:13.553Z,27.10
2018-04-07T13:38:42.016Z,27.30
2018-04-07T13:41:10.463Z,27.10
2018-04-07T13:43:38.916Z,27.30
2018-04-07T13:46:08.480Z,27.20
2018-04-07T13:48:36.914Z,27.30
2018-04-07T13:51:05.372Z,27.40
2018-04-07T13:53:33.831Z,27.20
2018-04-07T13:56:02.282Z,27.20
2018-04-07T13:58:30.730Z,27.50
2018-04-07T14:00:59.225Z,27.30
2018-04-07T14:03:27.700Z,27.90
2018-04-07T14:05:56.909Z,27.90
2018-04-07T14:08:26.387Z,27.90
2018-04-07T14:10:55.531Z,28.20
2018-04-07T14:13:25.887Z,28.40
2018-04-07T14:15:55.382Z,28.50
2018-04-07T14:18:24.111Z,28.40
2018-04-07T14:20:52.836Z,28.40
2018-04-07T14:23:21.568Z,28.50
2018-04-07T14:25:50.052Z,28.70
2018-04-07T14:28:20.430Z,29.20
2018-04-07T14:30:49.972Z,29.20
2018-04-07T14:33:18.443Z,29.10
2018-04-07T14:35:46.907Z,29.10
2018-04-07T14:38:16.135Z,28.90
2018-04-07T14:40:44.570Z,28.90
2018-04-07T14:43:13.289Z,29.10
2018-04-07T14:45:41.778Z,29.20
2018-04-07T14:48:11.340Z,29.30
2018-04-07T14:50:40.366Z,29.30
2018-04-07T14:53:09.262Z,29.20
2018-04-07T14:55:38.510Z,29.20
2018-04-07T14:58:07.112Z,29.20
2018-04-07T15:00:36.128Z,29.00
2018-04-07T15:03:04.600Z,29.20
2018-04-07T15:05:33.375Z,29.20
2018-04-07T15:08:01.818Z,29.50
2018-04-07T15:10:30.341Z,29.50
2018-04-07T15:12:59.700Z,29.70
2018-04-07T15:15:28.188Z,29.70
2018-04-07T15:17:56.640Z,30.10
2018-04-07T15:20:25.881Z,29.60
2018-04-07T15:22:54.342Z,29.50
2018-04-07T15:25:24.785Z,29.80
2018-04-07T15:27:53.234Z,29.80
2018-04-07T15:30:23.107Z,29.70
2018-04-07T15:32:52.342Z,29.80
2018-04-07T15:35:21.560Z,29.80
2018-04-07T15:37:53.181Z,29.80
2018-04-07T15:40:23.195Z,30.10
2018-04-07T15:42:51.926Z,30.10
2018-04-07T15:45:20.376Z,30.00
2018-04-07T15:47:48.862Z,29.90
2018-04-07T15:50:18.315Z,29.80
2018-04-07T15:52:46.808Z,30.20
2018-04-07T15:55:15.263Z,30.20
2018-04-07T15:57:44.526Z,30.50
2018-04-07T16:00:14.029Z,30.70
2018-04-07T16:02:42.506Z,30.80
2018-04-07T16:05:11.004Z,30.90
2018-04-07T16:07:39.512Z,31.10
2018-04-07T16:10:07.996Z,31.40
2018-04-07T16:12:36.478Z,31.40
2018-04-07T16:15:04.262Z,31.50
2018-04-07T16:17:33.503Z,32.10
2018-04-07T16:20:02.246Z,32.10
2018-04-07T16:22:30.691Z,32.50
2018-04-07T16:24:59.403Z,32.70
2018-04-07T16:27:28.148Z,33.00
2018-04-07T16:29:56.903Z,33.20
2018-04-07T16:32:25.391Z,33.50
2018-04-07T16:34:53.867Z,33.60
2018-04-07T16:37:23.167Z,34.10
2018-04-07T16:39:52.651Z,34.40
2018-04-07T16:42:22.349Z,34.40
2018-04-07T16:44:51.064Z,34.60
2018-04-07T16:47:20.961Z,34.80
2018-04-07T16:49:49.683Z,34.80
2018-04-07T16:52:18.404Z,35.10
2018-04-07T16:54:47.117Z,35.40
2018-04-07T16:57:15.849Z,35.20
2018-04-07T16:59:44.561Z,35.50
2018-04-07T17:02:13.281Z,35.90
2018-04-07T17:04:42.012Z,35.90
2018-04-07T17:07:11.699Z,36.20
2018-04-07T17:09:40.415Z,36.30
2018-04-07T17:12:09.126Z,36.50
2018-04-07T17:14:37.834Z,36.70
2018-04-07T17:17:06.565Z,37.10
2018-04-07T17:19:36.037Z,37.50
2018-04-07T17:22:04.745Z,37.40
2018-04-07T17:24:34.211Z,37.80
2018-04-07T17:27:02.926Z,37.80
2018-04-07T17:29:32.217Z,38.00
2018-04-07T17:32:00.996Z,38.40
2018-04-07T17:34:30.558Z,38.70
2018-04-07T17:36:59.273Z,39.10
2018-04-07T17:39:29.489Z,39.80
2018-04-07T17:41:58.220Z,39.80
2018-04-07T17:44:26.959Z,39.90
2018-04-07T17:46:55.671Z,40.00
2018-04-07T17:49:24.369Z,40.50
2018-04-07T17:51:53.098Z,40.70
2018-04-07T17:54:26.388Z,41.10
2018-04-07T17:56:55.885Z,41.30
2018-04-07T17:59:24.599Z,41.30
2018-04-07T18:01:54.156Z,41.60
2018-04-07T18:04:23.542Z,41.70
2018-04-07T18:06:52.276Z,42.00
2018-04-07T18:09:23.014Z,42.20
2018-04-07T18:11:52.506Z,42.30
2018-04-07T18:14:21.217Z,42.30
2018-04-07T18:16:50.696Z,42.60
2018-04-07T18:19:19.523Z,42.60
2018-04-07T18:21:48.394Z,42.80
2018-04-07T18:24:17.898Z,43.10
2018-04-07T18:26:47.382Z,43.30
2018-04-07T18:29:16.133Z,43.30
2018-04-07T18:31:45.030Z,43.50
2018-04-07T18:34:14.480Z,43.60
2018-04-07T18:36:44.695Z,43.80
2018-04-07T18:39:13.420Z,43.80
2018-04-07T18:41:42.150Z,44.00
2018-04-07T18:44:11.681Z,44.10
2018-04-07T18:46:39.733Z,44.20
2018-04-07T18:49:08.439Z,44.50
2018-04-07T18:51:37.159Z,44.80
2018-04-07T18:54:05.880Z,44.90
2018-04-07T18:56:35.166Z,45.10
2018-04-07T18:59:03.661Z,45.30
2018-04-07T19:01:32.928Z,45.90
2018-04-07T19:04:01.640Z,45.90
2018-04-07T19:06:30.131Z,46.20
2018-04-07T19:08:58.629Z,46.10
2018-04-07T19:11:27.970Z,46.60
2018-04-07T19:13:56.699Z,46.60
2018-04-07T19:16:25.406Z,47.00
2018-04-07T19:18:55.012Z,47.00
2018-04-07T19:21:24.355Z,47.40
2018-04-07T19:23:53.840Z,47.90
2018-04-07T19:26:22.563Z,47.90
2018-04-07T19:28:51.288Z,48.10
2018-04-07T19:31:19.796Z,48.40
2018-04-07T19:33:48.523Z,48.40
2018-04-07T19:36:17.092Z,48.60
2018-04-07T19:38:46.603Z,49.10
2018-04-07T19:41:16.118Z,49.10
2018-04-07T19:43:45.006Z,49.10
2018-04-07T19:46:14.722Z,49.30
2018-04-07T19:48:43.848Z,49.40
2018-04-07T19:51:13.123Z,49.80
2018-04-07T19:53:43.003Z,50.00
2018-04-07T19:56:11.723Z,50.20
2018-04-07T19:58:40.446Z,50.60
2018-04-07T20:01:09.162Z,50.50
2018-04-07T20:03:38.455Z,50.60
2018-04-07T20:06:07.168Z,50.90
2018-04-07T20:08:37.310Z,52.30
2018-04-07T20:11:07.300Z,52.20
2018-04-07T20:13:36.611Z,52.70
2018-04-07T20:16:06.123Z,53.20
2018-04-07T20:18:36.243Z,53.50
2018-04-07T20:21:05.724Z,54.70
2018-04-07T20:23:34.451Z,54.50
2018-04-07T20:26:03.168Z,54.90
2018-04-07T20:28:31.894Z,55.50
2018-04-07T20:31:01.077Z,55.20
2018-04-07T20:33:29.596Z,55.20
2018-04-07T20:35:59.442Z,55.80
2018-04-07T20:38:29.184Z,56.80
2018-04-07T20:40:57.595Z,56.70
2018-04-07T20:43:27.086Z,58.20
2018-04-07T20:45:59.945Z,58.10
2018-04-07T20:48:29.457Z,59.50
2018-04-07T20:50:58.174Z,60.20
2018-04-07T20:53:27.870Z,63.30
2018-04-07T20:55:56.598Z,63.30
2018-04-07T20:58:29.023Z,64.00
2018-04-07T21:00:58.442Z,65.70
2018-04-07T21:03:27.162Z,67.80
2018-04-07T21:05:55.911Z,68.10
2018-04-07T21:08:24.574Z,68.80
2018-04-07T21:10:54.843Z,70.40
2018-04-07T21:13:24.340Z,71.90
2018-04-07T21:15:53.091Z,71.90
2018-04-07T21:18:21.834Z,74.50
2018-04-07T21:20:51.027Z,75.70
2018-04-07T21:23:19.761Z,76.50
2018-04-07T21:25:48.490Z,77.10
2018-04-07T21:28:17.980Z,79.10
2018-04-07T21:30:46.711Z,78.70
2018-04-07T21:33:15.445Z,79.10
2018-04-07T21:35:44.234Z,81.10
2018-04-07T21:38:12.958Z,81.70
2018-04-07T21:40:43.599Z,82.90
2018-04-07T21:43:12.327Z,83.40
2018-04-07T21:45:41.055Z,82.90
2018-04-07T21:48:09.777Z,83.80
2018-04-07T21:50:39.979Z,84.20
2018-04-07T21:53:10.075Z,86.20
2018-04-07T21:55:39.532Z,86.20
2018-04-07T21:58:08.270Z,85.60
2018-04-07T22:00:36.993Z,85.60
2018-04-07T22:03:05.724Z,87.40
2018-04-07T22:05:34.461Z,86.70
2018-04-07T22:08:03.188Z,87.10
2018-04-07T22:10:31.675Z,87.20
2018-04-07T22:13:00.171Z,87.20
2018-04-07T22:15:29.667Z,87.50
2018-04-07T22:17:58.392Z,88.30
2018-04-07T22:20:27.650Z,89.30
2018-04-07T22:22:56.367Z,89.40
2018-04-07T22:25:24.857Z,89.80
2018-04-07T22:27:53.824Z,90.00
2018-04-07T22:30:22.026Z,90.20
2018-04-07T22:32:50.671Z,90.20
2018-04-07T22:35:19.163Z,90.30
2018-04-07T22:37:47.668Z,90.70
2018-04-07T22:40:16.712Z,90.90
2018-04-07T22:42:45.214Z,90.80
2018-04-07T22:45:13.996Z,90.60
2018-04-07T22:47:42.719Z,91.20
2018-04-07T22:50:11.437Z,91.20
2018-04-07T22:52:40.925Z,91.90
2018-04-07T22:55:09.644Z,92.00
2018-04-07T22:57:38.364Z,91.80
2018-04-07T23:00:06.435Z,91.90
2018-04-07T23:02:35.176Z,92.40
2018-04-07T23:05:04.013Z,92.20
2018-04-07T23:07:32.735Z,92.10
2018-04-07T23:10:01.467Z,92.30
2018-04-07T23:12:29.959Z,92.30
2018-04-07T23:14:58.692Z,92.10
2018-04-07T23:17:28.094Z,92.50
2018-04-07T23:19:56.827Z,92.30
2018-04-07T23:22:25.552Z,92.30
2018-04-07T23:24:54.282Z,92.50
2018-04-07T23:27:25.017Z,92.60
2018-04-07T23:29:55.634Z,92.40
2018-04-07T23:32:24.364Z,92.40
2018-04-07T23:34:53.091Z,92.40
2018-04-07T23:37:24.731Z,92.60
2018-04-07T23:39:53.768Z,92.80
2018-04-07T23:42:24.371Z,92.90
2018-04-07T23:44:53.116Z,93.00
2018-04-07T23:47:21.847Z,92.90
2018-04-07T23:49:51.696Z,93.00
2018-04-07T23:52:21.499Z,93.50
2018-04-07T23:54:50.998Z,93.70
2018-04-07T23:57:19.482Z,93.90
2018-04-07T23:59:48.414Z,93.50
